sensor_id;sensor_type;location;lat;lon;timestamp;pressure;altitude;pressure_sealevel;temperature;humidity
64616;BME280;51027;42.162;24.754;2022-12-24T00:31:33;99667.91;;;1.84;96.32
64616;BME280;51027;42.162;24.754;2022-12-24T00:50:08;99664.47;;;1.80;96.71
64616;BME280;51027;42.162;24.754;2022-12-24T01:08:38;99654.06;;;1.89;96.83
64616;BME280;51027;42.162;24.754;2022-12-24T01:31:37;99635.88;;;1.83;96.18
64616;BME280;51027;42.162;24.754;2022-12-24T01:37:42;99635.06;;;1.78;95.57
64616;BME280;51027;42.162;24.754;2022-12-24T01:49:12;99635.09;;;1.72;96.50
64616;BME280;51027;42.162;24.754;2022-12-24T02:04:00;99635.13;;;1.63;97.75
64616;BME280;51027;42.162;24.754;2022-12-24T02:07:31;99629.94;;;1.66;98.17
64616;BME280;51027;42.162;24.754;2022-12-24T02:09:58;99629.09;;;1.59;97.90
64616;BME280;51027;42.162;24.754;2022-12-24T02:47:25;99637.75;;;1.51;98.55
64616;BME280;51027;42.162;24.754;2022-12-24T02:49:51;99639.41;;;1.73;98.04
64616;BME280;51027;42.162;24.754;2022-12-24T02:52:46;99635.16;;;1.57;97.91
64616;BME280;51027;42.162;24.754;2022-12-24T02:55:57;99656.75;;;1.68;97.39
64616;BME280;51027;42.162;24.754;2022-12-24T03:04:21;99642.09;;;1.52;97.82
64616;BME280;51027;42.162;24.754;2022-12-24T03:07:14;99642.09;;;1.50;97.96
64616;BME280;51027;42.162;24.754;2022-12-24T03:15:31;99641.22;;;1.53;97.56
64616;BME280;51027;42.162;24.754;2022-12-24T03:18:00;99632.63;;;1.40;98.60
64616;BME280;51027;42.162;24.754;2022-12-24T03:20:34;99625.72;;;1.33;98.72
64616;BME280;51027;42.162;24.754;2022-12-24T03:23:02;99620.50;;;1.45;98.69
64616;BME280;51027;42.162;24.754;2022-12-24T03:25:28;99617.88;;;1.50;98.70
64616;BME280;51027;42.162;24.754;2022-12-24T03:27:55;99609.22;;;1.57;97.58
64616;BME280;51027;42.162;24.754;2022-12-24T03:30:21;99604.84;;;1.63;97.52
64616;BME280;51027;42.162;24.754;2022-12-24T03:32:46;99613.59;;;1.46;98.41
64616;BME280;51027;42.162;24.754;2022-12-24T03:35:12;99620.44;;;1.60;97.13
64616;BME280;51027;42.162;24.754;2022-12-24T03:37:37;99616.22;;;1.36;98.43
64616;BME280;51027;42.162;24.754;2022-12-24T03:40:04;99615.34;;;1.34;99.65
64616;BME280;51027;42.162;24.754;2022-12-24T03:42:30;99596.28;;;1.40;98.08
64616;BME280;51027;42.162;24.754;2022-12-24T03:44:55;99626.56;;;1.41;97.95
64616;BME280;51027;42.162;24.754;2022-12-24T03:47:20;99624.81;;;1.54;97.64
64616;BME280;51027;42.162;24.754;2022-12-24T03:49:46;99624.81;;;1.49;97.77
64616;BME280;51027;42.162;24.754;2022-12-24T03:52:11;99593.72;;;1.35;98.43
64616;BME280;51027;42.162;24.754;2022-12-24T03:54:37;99611.81;;;1.52;98.27
64616;BME280;51027;42.162;24.754;2022-12-24T03:57:02;99597.19;;;1.31;100.00
64616;BME280;51027;42.162;24.754;2022-12-24T03:59:28;99609.16;;;1.61;99.22
64616;BME280;51027;42.162;24.754;2022-12-24T04:01:53;99615.25;;;1.59;98.64
64616;BME280;51027;42.162;24.754;2022-12-24T04:04:18;99551.41;;;1.20;98.34
64616;BME280;51027;42.162;24.754;2022-12-24T04:06:44;99623.94;;;1.47;99.15
64616;BME280;51027;42.162;24.754;2022-12-24T04:09:09;99620.41;;;1.62;99.11
64616;BME280;51027;42.162;24.754;2022-12-24T04:11:35;99622.19;;;1.55;99.24
64616;BME280;51027;42.162;24.754;2022-12-24T04:14:00;99621.34;;;1.47;99.80
64616;BME280;51027;42.162;24.754;2022-12-24T04:16:25;99622.19;;;1.58;98.31
64616;BME280;51027;42.162;24.754;2022-12-24T04:18:51;99612.75;;;1.37;98.83
64616;BME280;51027;42.162;24.754;2022-12-24T04:21:16;99618.78;;;1.44;99.03
64616;BME280;51027;42.162;24.754;2022-12-24T04:23:42;99617.03;;;1.46;98.44
64616;BME280;51027;42.162;24.754;2022-12-24T04:26:10;99620.53;;;1.34;98.77
64616;BME280;51027;42.162;24.754;2022-12-24T04:28:36;99624.84;;;1.35;98.83
64616;BME280;51027;42.162;24.754;2022-12-24T04:31:08;99628.31;;;1.31;98.73
64616;BME280;51027;42.162;24.754;2022-12-24T04:33:34;99609.38;;;1.08;99.34
64616;BME280;51027;42.162;24.754;2022-12-24T04:36:01;99627.47;;;1.29;98.52
64616;BME280;51027;42.162;24.754;2022-12-24T04:38:27;99630.94;;;1.28;98.87
64616;BME280;51027;42.162;24.754;2022-12-24T04:43:30;99630.94;;;1.19;99.23
64616;BME280;51027;42.162;24.754;2022-12-24T04:46:06;99633.50;;;1.30;99.08
64616;BME280;51027;42.162;24.754;2022-12-24T04:48:32;99642.19;;;1.10;99.12
64616;BME280;51027;42.162;24.754;2022-12-24T04:51:00;99637.84;;;1.22;98.75
64616;BME280;51027;42.162;24.754;2022-12-24T04:53:26;99638.69;;;1.30;98.15
64616;BME280;51027;42.162;24.754;2022-12-24T04:55:51;99618.84;;;1.17;97.92
64616;BME280;51027;42.162;24.754;2022-12-24T04:58:16;99617.97;;;1.19;97.96
64616;BME280;51027;42.162;24.754;2022-12-24T05:00:42;99630.09;;;1.11;98.74
64616;BME280;51027;42.162;24.754;2022-12-24T05:03:07;99639.56;;;1.32;97.88
64616;BME280;51027;42.162;24.754;2022-12-24T05:05:33;99607.63;;;1.13;97.82
64616;BME280;51027;42.162;24.754;2022-12-24T05:07:58;99639.56;;;1.32;97.43
64616;BME280;51027;42.162;24.754;2022-12-24T05:10:23;99637.84;;;1.26;98.41
64616;BME280;51027;42.162;24.754;2022-12-24T05:12:49;99636.09;;;1.33;98.07
64616;BME280;51027;42.162;24.754;2022-12-24T05:15:14;99620.56;;;1.27;98.04
64616;BME280;51027;42.162;24.754;2022-12-24T05:17:40;99641.28;;;1.36;97.92
64616;BME280;51027;42.162;24.754;2022-12-24T05:20:05;99630.09;;;1.25;97.98
64616;BME280;51027;42.162;24.754;2022-12-24T05:22:31;99579.97;;;1.01;97.77
64616;BME280;51027;42.162;24.754;2022-12-24T05:25:15;99644.78;;;1.20;98.67
64616;BME280;51027;42.162;24.754;2022-12-24T05:27:59;99614.56;;;1.14;98.27
64616;BME280;51027;42.162;24.754;2022-12-24T05:30:24;99636.16;;;1.07;98.68
64616;BME280;51027;42.162;24.754;2022-12-24T05:32:50;99650.00;;;1.09;98.63
64616;BME280;51027;42.162;24.754;2022-12-24T05:35:15;99647.38;;;1.17;98.08
64616;BME280;51027;42.162;24.754;2022-12-24T05:37:40;99646.53;;;1.16;97.68
64616;BME280;51027;42.162;24.754;2022-12-24T05:40:06;99637.91;;;0.97;98.12
64616;BME280;51027;42.162;24.754;2022-12-24T05:42:32;99652.59;;;1.03;98.04
64616;BME280;51027;42.162;24.754;2022-12-24T05:44:57;99633.59;;;0.90;98.42
64616;BME280;51027;42.162;24.754;2022-12-24T05:47:23;99652.59;;;1.04;98.18
64616;BME280;51027;42.162;24.754;2022-12-24T05:49:48;99649.09;;;1.22;97.50
64616;BME280;51027;42.162;24.754;2022-12-24T05:52:13;99645.66;;;1.09;97.21
64616;BME280;51027;42.162;24.754;2022-12-24T05:54:39;99638.78;;;0.95;97.70
64616;BME280;51027;42.162;24.754;2022-12-24T05:57:04;99650.88;;;0.86;98.48
64616;BME280;51027;42.162;24.754;2022-12-24T05:59:29;99662.97;;;0.97;98.87
64616;BME280;51027;42.162;24.754;2022-12-24T06:01:55;99659.50;;;1.14;97.82
64616;BME280;51027;42.162;24.754;2022-12-24T06:04:20;99663.81;;;1.11;97.41
64616;BME280;51027;42.162;24.754;2022-12-24T06:06:46;99635.28;;;1.15;96.51
64616;BME280;51027;42.162;24.754;2022-12-24T06:09:11;99651.69;;;1.25;96.28
64616;BME280;51027;42.162;24.754;2022-12-24T06:11:36;99673.28;;;1.29;96.90
64616;BME280;51027;42.162;24.754;2022-12-24T06:14:02;99647.38;;;1.10;96.46
64616;BME280;51027;42.162;24.754;2022-12-24T06:16:28;99679.41;;;0.96;98.10
64616;BME280;51027;42.162;24.754;2022-12-24T06:18:53;99667.28;;;1.13;97.00
64616;BME280;51027;42.162;24.754;2022-12-24T06:21:19;99675.91;;;1.12;97.49
64616;BME280;51027;42.162;24.754;2022-12-24T06:23:45;99679.31;;;1.38;95.99
64616;BME280;51027;42.162;24.754;2022-12-24T06:26:13;99672.47;;;1.13;96.66
64616;BME280;51027;42.162;24.754;2022-12-24T06:28:39;99680.19;;;1.45;95.77
64616;BME280;51027;42.162;24.754;2022-12-24T06:31:06;99676.53;;;1.90;93.16
64616;BME280;51027;42.162;24.754;2022-12-24T06:33:35;99669.69;;;1.79;92.50
64616;BME280;51027;42.162;24.754;2022-12-24T06:36:00;99611.00;;;1.44;92.97
64616;BME280;51027;42.162;24.754;2022-12-24T06:38:26;99662.69;;;1.93;92.04
64616;BME280;51027;42.162;24.754;2022-12-24T06:40:53;99673.81;;;2.18;91.41
64616;BME280;51027;42.162;24.754;2022-12-24T06:43:20;99634.72;;;2.38;88.54
64616;BME280;51027;42.162;24.754;2022-12-24T06:45:46;99679.72;;;2.46;90.20
64616;BME280;51027;42.162;24.754;2022-12-24T06:48:12;99685.78;;;2.42;89.99
64616;BME280;51027;42.162;24.754;2022-12-24T06:50:38;99666.53;;;2.70;88.85
64616;BME280;51027;42.162;24.754;2022-12-24T06:53:03;99674.16;;;2.92;88.81
64616;BME280;51027;42.162;24.754;2022-12-24T06:55:29;99669.53;;;3.23;86.24
64616;BME280;51027;42.162;24.754;2022-12-24T06:57:54;99675.16;;;3.64;84.90
64616;BME280;51027;42.162;24.754;2022-12-24T07:00:20;99663.56;;;4.51;82.98
64616;BME280;51027;42.162;24.754;2022-12-24T07:02:48;99664.91;;;4.77;80.72
64616;BME280;51027;42.162;24.754;2022-12-24T07:05:14;99660.91;;;6.77;72.48
64616;BME280;51027;42.162;24.754;2022-12-24T07:07:41;99602.09;;;7.22;69.76
64616;BME280;51027;42.162;24.754;2022-12-24T07:10:09;99654.25;;;9.06;62.46
64616;BME280;51027;42.162;24.754;2022-12-24T07:12:35;99634.28;;;7.28;66.87
64616;BME280;51027;42.162;24.754;2022-12-24T07:15:01;99660.28;;;9.09;62.68
64616;BME280;51027;42.162;24.754;2022-12-24T07:17:26;99672.72;;;6.56;70.71
64616;BME280;51027;42.162;24.754;2022-12-24T07:19:52;99655.06;;;8.25;67.11
64616;BME280;51027;42.162;24.754;2022-12-24T07:22:17;99662.19;;;7.61;67.70
64616;BME280;51027;42.162;24.754;2022-12-24T07:24:42;99671.34;;;7.46;68.28
64616;BME280;51027;42.162;24.754;2022-12-24T07:27:08;99665.19;;;7.13;70.34
64616;BME280;51027;42.162;24.754;2022-12-24T07:29:34;99668.13;;;7.01;70.63
64616;BME280;51027;42.162;24.754;2022-12-24T07:31:59;99664.94;;;7.86;68.49
64616;BME280;51027;42.162;24.754;2022-12-24T07:34:25;99654.81;;;8.34;67.03
64616;BME280;51027;42.162;24.754;2022-12-24T07:36:50;99659.94;;;9.93;61.86
64616;BME280;51027;42.162;24.754;2022-12-24T07:39:15;99657.13;;;8.98;63.37
64616;BME280;51027;42.162;24.754;2022-12-24T07:41:41;99658.91;;;8.98;64.15
64616;BME280;51027;42.162;24.754;2022-12-24T07:44:11;99632.50;;;10.67;59.27
64616;BME280;51027;42.162;24.754;2022-12-24T07:46:36;99660.16;;;11.00;57.96
64616;BME280;51027;42.162;24.754;2022-12-24T07:49:02;99665.69;;;11.36;57.04
64616;BME280;51027;42.162;24.754;2022-12-24T07:51:27;99667.25;;;13.28;51.00
64616;BME280;51027;42.162;24.754;2022-12-24T07:53:52;99677.47;;;10.63;57.87
64616;BME280;51027;42.162;24.754;2022-12-24T07:56:18;99683.25;;;9.79;61.01
64616;BME280;51027;42.162;24.754;2022-12-24T07:58:43;99686.75;;;9.03;63.82
64616;BME280;51027;42.162;24.754;2022-12-24T08:01:09;99675.78;;;8.05;66.21
64616;BME280;51027;42.162;24.754;2022-12-24T08:03:35;99697.56;;;7.76;69.14
64616;BME280;51027;42.162;24.754;2022-12-24T08:06:00;99698.81;;;8.25;68.42
64616;BME280;51027;42.162;24.754;2022-12-24T08:08:26;99703.97;;;8.28;68.45
64616;BME280;51027;42.162;24.754;2022-12-24T08:10:51;99703.31;;;7.90;69.56
64616;BME280;51027;42.162;24.754;2022-12-24T08:13:17;99709.72;;;7.80;70.13
64616;BME280;51027;42.162;24.754;2022-12-24T08:15:43;99714.34;;;7.02;73.29
64616;BME280;51027;42.162;24.754;2022-12-24T08:18:09;99707.78;;;6.49;75.82
64616;BME280;51027;42.162;24.754;2022-12-24T08:20:39;99720.88;;;6.84;75.62
64616;BME280;51027;42.162;24.754;2022-12-24T08:23:05;99693.47;;;6.65;76.29
64616;BME280;51027;42.162;24.754;2022-12-24T08:25:31;99717.66;;;7.10;74.88
64616;BME280;51027;42.162;24.754;2022-12-24T08:27:56;99724.75;;;7.41;74.00
64616;BME280;51027;42.162;24.754;2022-12-24T08:30:22;99716.06;;;7.71;73.00
64616;BME280;51027;42.162;24.754;2022-12-24T08:32:48;99729.59;;;7.55;72.92
64616;BME280;51027;42.162;24.754;2022-12-24T08:35:13;99705.19;;;7.20;73.86
64616;BME280;51027;42.162;24.754;2022-12-24T08:37:39;99716.22;;;7.33;73.93
64616;BME280;51027;42.162;24.754;2022-12-24T08:40:04;99704.19;;;8.20;71.26
64616;BME280;51027;42.162;24.754;2022-12-24T08:42:30;99712.28;;;9.00;67.95
64616;BME280;51027;42.162;24.754;2022-12-24T08:44:55;99707.16;;;7.78;71.66
64616;BME280;51027;42.162;24.754;2022-12-24T08:47:21;99710.88;;;7.37;72.56
64616;BME280;51027;42.162;24.754;2022-12-24T08:49:46;99702.41;;;7.91;71.27
64616;BME280;51027;42.162;24.754;2022-12-24T08:52:12;99707.44;;;7.99;70.83
64616;BME280;51027;42.162;24.754;2022-12-24T08:54:37;99696.75;;;7.74;71.83
64616;BME280;51027;42.162;24.754;2022-12-24T08:57:02;99693.84;;;11.13;60.64
64616;BME280;51027;42.162;24.754;2022-12-24T08:59:28;99665.75;;;14.72;51.08
64616;BME280;51027;42.162;24.754;2022-12-24T09:01:53;99689.50;;;17.19;43.98
64616;BME280;51027;42.162;24.754;2022-12-24T09:04:18;99677.41;;;15.60;44.09
64616;BME280;51027;42.162;24.754;2022-12-24T09:06:44;99690.94;;;10.99;57.31
64616;BME280;51027;42.162;24.754;2022-12-24T09:09:10;99701.91;;;9.21;63.74
64616;BME280;51027;42.162;24.754;2022-12-24T09:11:35;99700.41;;;10.59;62.12
64616;BME280;51027;42.162;24.754;2022-12-24T09:14:00;99684.91;;;16.53;45.40
64616;BME280;51027;42.162;24.754;2022-12-24T09:16:26;99673.81;;;17.41;41.74
64616;BME280;51027;42.162;24.754;2022-12-24T09:18:51;99673.94;;;12.08;53.79
64616;BME280;51027;42.162;24.754;2022-12-24T09:21:17;99680.25;;;14.96;49.62
64616;BME280;51027;42.162;24.754;2022-12-24T09:23:44;99677.81;;;17.74;43.09
64616;BME280;51027;42.162;24.754;2022-12-24T09:26:22;99673.75;;;16.48;43.36
64616;BME280;51027;42.162;24.754;2022-12-24T09:28:48;99665.97;;;14.67;45.83
64616;BME280;51027;42.162;24.754;2022-12-24T09:31:14;99677.41;;;11.49;54.20
64616;BME280;51027;42.162;24.754;2022-12-24T09:33:41;99648.63;;;9.91;59.04
64616;BME280;51027;42.162;24.754;2022-12-24T09:36:08;99666.13;;;10.61;59.50
64616;BME280;51027;42.162;24.754;2022-12-24T09:38:36;99664.03;;;10.91;57.29
64616;BME280;51027;42.162;24.754;2022-12-24T09:41:14;99659.28;;;9.63;61.32
64616;BME280;51027;42.162;24.754;2022-12-24T09:43:45;99657.13;;;9.24;63.83
64616;BME280;51027;42.162;24.754;2022-12-24T09:46:32;99656.66;;;9.63;62.94
64616;BME280;51027;42.162;24.754;2022-12-24T09:49:05;99652.44;;;10.29;61.55
64616;BME280;51027;42.162;24.754;2022-12-24T09:51:45;99642.88;;;10.92;59.20
64616;BME280;51027;42.162;24.754;2022-12-24T09:54:19;99639.75;;;12.24;55.07
64616;BME280;51027;42.162;24.754;2022-12-24T09:56:47;99639.22;;;11.58;57.42
64616;BME280;51027;42.162;24.754;2022-12-24T09:59:16;99630.78;;;11.09;58.90
64616;BME280;51027;42.162;24.754;2022-12-24T10:01:42;99628.94;;;11.31;58.71
64616;BME280;51027;42.162;24.754;2022-12-24T10:04:17;99626.88;;;11.58;58.03
64616;BME280;51027;42.162;24.754;2022-12-24T10:12:17;99627.13;;;10.91;59.99
64616;BME280;51027;42.162;24.754;2022-12-24T10:23:18;99610.75;;;11.64;57.49
64616;BME280;51027;42.162;24.754;2022-12-24T10:31:12;99603.94;;;12.18;55.93
64616;BME280;51027;42.162;24.754;2022-12-24T10:33:43;99598.63;;;12.90;53.83
64616;BME280;51027;42.162;24.754;2022-12-24T10:36:23;99604.34;;;16.38;45.90
64616;BME280;51027;42.162;24.754;2022-12-24T10:38:51;99603.53;;;13.15;53.01
64616;BME280;51027;42.162;24.754;2022-12-24T10:41:16;99593.38;;;12.18;55.69
64616;BME280;51027;42.162;24.754;2022-12-24T10:43:44;99599.34;;;12.22;55.85
64616;BME280;51027;42.162;24.754;2022-12-24T10:46:37;99592.59;;;12.16;55.73
64616;BME280;51027;42.162;24.754;2022-12-24T10:49:11;99587.91;;;11.65;57.22
64616;BME280;51027;42.162;24.754;2022-12-24T10:57:33;99598.34;;;11.47;58.35
64616;BME280;51027;42.162;24.754;2022-12-24T11:00:00;99592.16;;;11.28;58.32
64616;BME280;51027;42.162;24.754;2022-12-24T11:02:29;99589.53;;;11.67;57.31
64616;BME280;51027;42.162;24.754;2022-12-24T11:04:55;99583.75;;;11.59;57.91
64616;BME280;51027;42.162;24.754;2022-12-24T11:07:23;99582.25;;;11.14;59.70
64616;BME280;51027;42.162;24.754;2022-12-24T11:10:00;99596.44;;;11.31;59.33
64616;BME280;51027;42.162;24.754;2022-12-24T11:12:45;99597.44;;;11.08;59.61
64616;BME280;51027;42.162;24.754;2022-12-24T11:15:26;99588.69;;;11.07;60.05
64616;BME280;51027;42.162;24.754;2022-12-24T11:17:56;99587.06;;;10.83;60.20
64616;BME280;51027;42.162;24.754;2022-12-24T11:20:26;99594.59;;;10.92;59.67
64616;BME280;51027;42.162;24.754;2022-12-24T11:22:52;99581.47;;;10.70;60.03
64616;BME280;51027;42.162;24.754;2022-12-24T11:25:21;99584.88;;;10.72;60.15
64616;BME280;51027;42.162;24.754;2022-12-24T11:27:49;99572.13;;;10.63;60.15
64616;BME280;51027;42.162;24.754;2022-12-24T11:32:45;99580.09;;;10.82;60.84
64616;BME280;51027;42.162;24.754;2022-12-24T11:35:19;99574.47;;;10.69;60.91
64616;BME280;51027;42.162;24.754;2022-12-24T11:40:37;99566.59;;;11.10;59.74
64616;BME280;51027;42.162;24.754;2022-12-24T11:43:05;99563.25;;;11.27;59.82
64616;BME280;51027;42.162;24.754;2022-12-24T11:45:32;99558.06;;;11.44;59.09
64616;BME280;51027;42.162;24.754;2022-12-24T11:47:59;99560.00;;;11.79;58.04
64616;BME280;51027;42.162;24.754;2022-12-24T11:50:33;99561.03;;;11.94;57.99
64616;BME280;51027;42.162;24.754;2022-12-24T11:55:52;99561.22;;;11.71;58.67
64616;BME280;51027;42.162;24.754;2022-12-24T11:58:39;99566.47;;;11.91;58.64
64616;BME280;51027;42.162;24.754;2022-12-24T12:03:39;99561.53;;;11.25;60.45
64616;BME280;51027;42.162;24.754;2022-12-24T12:09:03;99537.16;;;11.00;62.10
64616;BME280;51027;42.162;24.754;2022-12-24T12:11:32;99552.41;;;10.93;62.76
64616;BME280;51027;42.162;24.754;2022-12-24T12:14:00;99553.88;;;10.99;62.38
64616;BME280;51027;42.162;24.754;2022-12-24T12:16:33;99559.16;;;10.99;62.66
64616;BME280;51027;42.162;24.754;2022-12-24T12:19:21;99554.13;;;11.13;62.05
64616;BME280;51027;42.162;24.754;2022-12-24T12:21:50;99556.59;;;10.98;62.85
64616;BME280;51027;42.162;24.754;2022-12-24T12:24:54;99551.72;;;11.09;63.03
64616;BME280;51027;42.162;24.754;2022-12-24T12:27:18;99551.56;;;11.12;62.98
64616;BME280;51027;42.162;24.754;2022-12-24T12:29:49;99535.31;;;11.02;62.89
64616;BME280;51027;42.162;24.754;2022-12-24T12:35:22;99544.06;;;11.03;63.43
64616;BME280;51027;42.162;24.754;2022-12-24T12:37:57;99553.09;;;10.97;63.93
64616;BME280;51027;42.162;24.754;2022-12-24T12:46:15;99563.78;;;10.94;63.83
64616;BME280;51027;42.162;24.754;2022-12-24T12:57:10;99536.50;;;10.54;64.98
64616;BME280;51027;42.162;24.754;2022-12-24T12:59:56;99553.72;;;10.61;65.32
64616;BME280;51027;42.162;24.754;2022-12-24T13:10:56;99561.78;;;10.36;67.02
64616;BME280;51027;42.162;24.754;2022-12-24T13:14:00;99561.91;;;10.33;66.74
64616;BME280;51027;42.162;24.754;2022-12-24T13:22:16;99576.66;;;10.37;67.50
64616;BME280;51027;42.162;24.754;2022-12-24T13:24:55;99586.34;;;10.37;67.20
64616;BME280;51027;42.162;24.754;2022-12-24T13:27:28;99585.53;;;10.35;67.07
64616;BME280;51027;42.162;24.754;2022-12-24T13:30:31;99596.00;;;10.36;66.98
64616;BME280;51027;42.162;24.754;2022-12-24T13:32:57;99594.38;;;10.34;67.05
64616;BME280;51027;42.162;24.754;2022-12-24T13:37:49;99586.97;;;10.20;67.67
64616;BME280;51027;42.162;24.754;2022-12-24T13:40:21;99595.66;;;10.24;67.93
64616;BME280;51027;42.162;24.754;2022-12-24T13:42:50;99594.47;;;10.31;67.93
64616;BME280;51027;42.162;24.754;2022-12-24T13:48:24;99585.59;;;10.10;69.05
64616;BME280;51027;42.162;24.754;2022-12-24T13:50:53;99592.75;;;10.30;68.65
64616;BME280;51027;42.162;24.754;2022-12-24T13:53:43;99591.91;;;10.29;69.01
64616;BME280;51027;42.162;24.754;2022-12-24T13:58:49;99599.69;;;10.32;68.85
64616;BME280;51027;42.162;24.754;2022-12-24T14:01:34;99598.53;;;10.16;69.62
64616;BME280;51027;42.162;24.754;2022-12-24T14:04:03;99598.41;;;10.19;69.41
64616;BME280;51027;42.162;24.754;2022-12-24T14:06:32;99573.22;;;10.14;69.25
64616;BME280;51027;42.162;24.754;2022-12-24T14:09:09;99596.69;;;10.18;69.80
64616;BME280;51027;42.162;24.754;2022-12-24T14:14:31;99585.00;;;10.03;70.42
64616;BME280;51027;42.162;24.754;2022-12-24T14:17:00;99595.69;;;9.99;70.81
64616;BME280;51027;42.162;24.754;2022-12-24T14:19:39;99600.59;;;10.08;70.41
64616;BME280;51027;42.162;24.754;2022-12-24T14:24:53;99597.13;;;10.07;70.65
64616;BME280;51027;42.162;24.754;2022-12-24T14:27:38;99591.63;;;9.90;70.60
64616;BME280;51027;42.162;24.754;2022-12-24T14:30:21;99591.94;;;9.82;71.47
64616;BME280;51027;42.162;24.754;2022-12-24T14:32:48;99596.81;;;9.93;70.80
64616;BME280;51027;42.162;24.754;2022-12-24T14:35:37;99597.41;;;10.00;71.42
64616;BME280;51027;42.162;24.754;2022-12-24T14:38:05;99596.34;;;9.82;72.56
64616;BME280;51027;42.162;24.754;2022-12-24T14:40:47;99592.09;;;9.78;72.42
64616;BME280;51027;42.162;24.754;2022-12-24T14:49:14;99606.81;;;9.84;72.57
64616;BME280;51027;42.162;24.754;2022-12-24T14:54:39;99621.88;;;9.55;74.08
64616;BME280;51027;42.162;24.754;2022-12-24T14:57:21;99601.19;;;9.46;73.94
64616;BME280;51027;42.162;24.754;2022-12-24T14:59:57;99610.38;;;9.58;73.98
64616;BME280;51027;42.162;24.754;2022-12-24T15:02:39;99608.75;;;9.55;74.41
64616;BME280;51027;42.162;24.754;2022-12-24T15:05:23;99613.66;;;9.39;75.00
64616;BME280;51027;42.162;24.754;2022-12-24T15:08:07;99610.97;;;9.42;75.01
64616;BME280;51027;42.162;24.754;2022-12-24T15:10:38;99618.13;;;9.37;75.32
64616;BME280;51027;42.162;24.754;2022-12-24T15:15:46;99627.03;;;9.08;76.47
64616;BME280;51027;42.162;24.754;2022-12-24T15:18:18;99609.41;;;9.12;75.90
64616;BME280;51027;42.162;24.754;2022-12-24T15:20:48;99609.09;;;9.21;75.59
64616;BME280;51027;42.162;24.754;2022-12-24T15:23:20;99613.38;;;9.23;75.96
64616;BME280;51027;42.162;24.754;2022-12-24T15:25:46;99631.53;;;9.30;76.36
64616;BME280;51027;42.162;24.754;2022-12-24T15:28:19;99636.38;;;9.17;76.71
64616;BME280;51027;42.162;24.754;2022-12-24T15:30:45;99638.56;;;9.04;77.49
64616;BME280;51027;42.162;24.754;2022-12-24T15:33:11;99637.66;;;9.05;77.15
64616;BME280;51027;42.162;24.754;2022-12-24T15:35:50;99630.28;;;8.90;77.98
64616;BME280;51027;42.162;24.754;2022-12-24T15:38:38;99646.53;;;8.75;78.77
64616;BME280;51027;42.162;24.754;2022-12-24T15:41:26;99637.81;;;8.74;79.28
64616;BME280;51027;42.162;24.754;2022-12-24T15:43:59;99631.03;;;8.67;78.88
64616;BME280;51027;42.162;24.754;2022-12-24T15:46:27;99645.38;;;8.83;79.00
64616;BME280;51027;42.162;24.754;2022-12-24T15:48:55;99656.28;;;8.71;79.51
64616;BME280;51027;42.162;24.754;2022-12-24T15:51:28;99645.84;;;8.70;79.53
64616;BME280;51027;42.162;24.754;2022-12-24T15:54:00;99657.72;;;8.81;79.39
64616;BME280;51027;42.162;24.754;2022-12-24T15:56:43;99653.25;;;8.83;79.08
64616;BME280;51027;42.162;24.754;2022-12-24T16:01:47;99636.72;;;8.53;80.27
64616;BME280;51027;42.162;24.754;2022-12-24T16:04:21;99657.22;;;8.70;80.10
64616;BME280;51027;42.162;24.754;2022-12-24T16:06:54;99673.25;;;8.87;79.78
64616;BME280;51027;42.162;24.754;2022-12-24T16:12:13;99687.75;;;8.73;80.12
64616;BME280;51027;42.162;24.754;2022-12-24T16:14:44;99679.00;;;8.72;80.03
64616;BME280;51027;42.162;24.754;2022-12-24T16:17:18;99686.59;;;8.53;80.19
64616;BME280;51027;42.162;24.754;2022-12-24T16:19:49;99691.47;;;8.65;80.13
64616;BME280;51027;42.162;24.754;2022-12-24T16:22:21;99702.34;;;8.81;79.68
64616;BME280;51027;42.162;24.754;2022-12-24T16:24:56;99702.59;;;8.74;79.72
64616;BME280;51027;42.162;24.754;2022-12-24T16:27:22;99716.38;;;8.52;81.05
64616;BME280;51027;42.162;24.754;2022-12-24T16:29:47;99706.00;;;8.49;81.17
64616;BME280;51027;42.162;24.754;2022-12-24T16:32:31;99705.84;;;8.54;80.97
64616;BME280;51027;42.162;24.754;2022-12-24T16:34:57;99714.91;;;8.44;81.10
64616;BME280;51027;42.162;24.754;2022-12-24T16:37:23;99713.75;;;8.52;81.41
64616;BME280;51027;42.162;24.754;2022-12-24T16:39:48;99713.81;;;8.51;81.52
64616;BME280;51027;42.162;24.754;2022-12-24T16:42:14;99722.84;;;8.70;80.86
64616;BME280;51027;42.162;24.754;2022-12-24T16:44:58;99733.09;;;8.78;80.83
64616;BME280;51027;42.162;24.754;2022-12-24T16:47:28;99732.50;;;8.68;81.11
64616;BME280;51027;42.162;24.754;2022-12-24T16:49:56;99733.75;;;8.56;81.31
64616;BME280;51027;42.162;24.754;2022-12-24T16:52:24;99744.41;;;8.52;81.78
64616;BME280;51027;42.162;24.754;2022-12-24T16:54:50;99726.31;;;8.43;82.52
64616;BME280;51027;42.162;24.754;2022-12-24T16:57:17;99750.34;;;8.57;83.87
64616;BME280;51027;42.162;24.754;2022-12-24T16:59:43;99755.25;;;8.69;85.55
64616;BME280;51027;42.162;24.754;2022-12-24T17:02:12;99760.31;;;8.75;86.65
64616;BME280;51027;42.162;24.754;2022-12-24T17:04:38;99761.31;;;8.71;88.84
64616;BME280;51027;42.162;24.754;2022-12-24T17:07:05;99738.34;;;8.78;89.65
64616;BME280;51027;42.162;24.754;2022-12-24T17:09:30;99768.00;;;8.81;92.73
64616;BME280;51027;42.162;24.754;2022-12-24T17:11:56;99760.75;;;8.89;94.12
64616;BME280;51027;42.162;24.754;2022-12-24T17:14:21;99753.09;;;9.10;98.39
64616;BME280;51027;42.162;24.754;2022-12-24T17:16:47;99735.94;;;8.98;100.00
64616;BME280;51027;42.162;24.754;2022-12-24T17:19:13;99768.88;;;9.08;100.00
64616;BME280;51027;42.162;24.754;2022-12-24T17:21:38;99759.34;;;9.06;100.00
64616;BME280;51027;42.162;24.754;2022-12-24T17:24:05;99771.50;;;9.10;100.00
64616;BME280;51027;42.162;24.754;2022-12-24T17:26:31;99774.06;;;9.11;100.00
64616;BME280;51027;42.162;24.754;2022-12-24T17:28:56;99767.03;;;9.12;100.00